CDT,Max TemperatureF,Mean TemperatureF,Min TemperatureF,Max Dew PointF,MeanDew PointF,Min DewpointF,Max Humidity, Mean Humidity, Min Humidity, Max Sea Level PressureIn, Mean Sea Level PressureIn, Min Sea Level PressureIn, Max VisibilityMiles, Mean VisibilityMiles, Min VisibilityMiles, Max Wind SpeedMPH, Mean Wind SpeedMPH, Max Gust SpeedMPH,PrecipitationIn, CloudCover, Events, WindDirDegrees
2013-7-1,76,67,57,60,52,39,84,57,43,30.04,30.00,29.95,10,10,9,21,8,26,0.00,3,,30
2013-7-2,65,63,60,61,58,52,100,87,65,30.07,30.05,30.02,10,9,3,12,5,15,0.18,8,Rain,26
2013-7-3,75,68,60,66,62,60,100,89,71,30.09,30.05,30.01,10,6,2,10,4,12,0.12,7,Rain,198
2013-7-4,78,66,54,64,60,54,100,86,60,30.14,30.11,30.08,10,4,0,12,4,15,0.00,0,Fog,178
2013-7-5,82,70,57,67,62,57,100,83,58,30.12,30.09,30.04,10,5,0,13,4,17,0.00,2,Fog,173
2013-7-6,79,73,66,71,68,65,96,85,68,30.09,30.06,30.00,10,8,2,12,3,15,0.11,5,Rain,174
2013-7-7,85,76,67,71,68,66,100,82,55,30.06,30.03,29.98,10,7,2,14,7,17,0.01,3,,192
2013-7-8,85,78,70,72,70,66,94,82,63,30.12,30.02,29.96,10,8,2,21,8,25,0.00,3,Rain,230
2013-7-9,84,79,73,76,73,71,94,86,72,30.01,29.97,29.89,10,7,2,22,7,26,0.01,1,,222
2013-7-10,81,71,61,75,68,58,94,80,59,30.01,29.91,29.85,10,7,0,33,5,43,0.55,3,Fog-Rain,299
2013-7-11,78,69,59,62,57,53,90,68,43,30.10,30.08,30.01,10,10,7,12,4,18,0.00,0,,352
2013-7-12,83,69,55,63,59,54,93,72,43,30.15,30.12,30.09,10,10,10,9,3,13,0.00,0,,45
2013-7-13,84,71,58,67,62,56,90,72,49,30.18,30.15,30.12,10,10,10,12,5,16,0.00,1,,76
2013-7-14,89,77,64,72,67,63,100,78,49,30.22,30.19,30.16,10,8,2,12,5,15,0.00,0,,68
2013-7-15,90,81,72,75,73,70,90,72,57,30.29,30.26,30.22,10,10,9,9,3,16,0.00,2,,167
2013-7-16,90,80,70,73,71,69,100,79,55,30.33,30.30,30.26,10,7,0,10,4,18,0.00,0,Fog,202
2013-7-17,92,82,72,73,71,69,90,69,48,30.33,30.27,30.19,10,10,10,10,3,14,0.00,1,,254
2013-7-18,93,84,74,75,72,71,91,69,50,30.19,30.10,29.99,10,10,8,17,6,21,0.00,0,,219
2013-7-19,95,85,75,73,71,68,91,66,43,29.98,29.87,29.79,10,9,5,24,12,31,0.00,0,,231
2013-7-20,86,78,69,72,66,59,79,64,43,29.94,29.86,29.80,10,10,10,10,4,24,0.00,1,,340
2013-7-21,88,76,64,69,65,62,97,70,46,29.98,29.93,29.87,10,10,5,12,4,16,0.01,1,,127
2013-7-22,86,77,68,69,66,64,93,73,51,29.88,29.83,29.77,10,10,9,13,5,18,0.02,3,,159
2013-7-23,80,70,60,69,60,48,87,69,58,29.96,29.82,29.70,10,10,10,24,9,32,0.00,2,,329
2013-7-24,71,61,50,53,49,46,87,63,44,30.06,30.03,29.96,10,10,10,13,5,17,0.00,0,,22
2013-7-25,79,66,52,57,53,50,93,65,39,30.13,30.09,30.05,10,10,10,10,2,14,0.00,1,,205
2013-7-26,78,68,57,64,59,55,94,76,54,30.07,29.99,29.89,10,10,8,21,7,26,T,6,Rain,203
2013-7-27,69,62,55,64,57,46,100,80,52,29.93,29.88,29.86,10,7,0,14,7,23,0.01,6,Fog-Rain,286
2013-7-28,71,61,50,53,48,46,90,70,45,30.04,29.96,29.90,10,10,10,17,8,21,0.03,5,Rain,253
2013-7-29,76,64,52,57,53,49,89,68,50,30.20,30.13,30.04,10,10,10,13,5,22,0.00,2,,310
2013-7-30,74,63,52,62,57,51,96,77,57,30.21,30.16,30.09,10,9,5,10,4,13,0.00,4,,142
2013-7-31,71,67,62,66,64,61,100,91,81,30.08,30.02,29.97,10,5,1,9,4,16,0.05,7,Rain,207